Create Custom Reports and Graphics: Custom Report

North/Central Map

Map

15 Minute Data

South County Map

Map

15 Minute Data

Northern Sonoma County Latest

13 Stations

15 Minute Data | America/Los_Angeles
as of 4/17/21 2:10 AM PDT
Station Date Time Temp (°F) RH (%) Dew Pt (°F) Wind Spd (mph) Wind Dir (°) Wind Gust (mph) Latest Rain (In) Daily Rain (In) Daily Min Temp (°F) Daily Max Temp (°F)
Rockpile Upper (Cooley) 4/17/21 0200 50.8   1.6 55   5 35.2   0.8 14.1 NNW | 327 18.6   11.2 0.00 0.00 49.7   1.7 51.4   1.1
Rockpile Lower (Cooley) 4/17/21 0145 51.9   5.3 57   17 37.2   1.5 4.2 N | 4 6.4   3.9 0.00 0.00 51.4   5.1 54.5   5.9
Cloverdale-East (Ranch 83) 4/17/21 0200 43.7   2.0 91   8 41.2   4.2 1.0 SSW | 195 2.2   1.0 0.00 0.00 42.5   0.8 44.9   2.0
Cloverdale-SE (Ranch 38) 4/17/21 0200 47.6   4.4 73   15 39.5   0.4 0.9 SE | 138 3.3   1.1 0.00 0.00 45.9   3.0 53.0   8.7
Geyserville-North (Hoffman) 4/17/21 0200 41.7   2.7 90   2 39.0   3.2 1.0 WSW | 243 2.0   0.5 0.00 0.00 41.0   2.4 43.5   3.0
Geyserville (Ranch 3) 4/17/21 0200 43.5   2.1 92   4 41.5   3.2 0.7 WSW | 253 1.9   0.5 0.00 0.00 43.4   2.3 44.7   1.5
Geyserville-East (Ranch 40) 4/17/21 0200 43.8   0.8 98   4 43.2   1.7 0.8 S | 181 2.0   0.4 0.00 0.00 43.6   1.2 44.0   0.8
Geyserville-South (Nervo Station) 4/17/21 0200 44.9   2.2 93   1 43.1   2.6 0.0 N | 0 0.0   0.0 0.00 0.00 44.6   2.3 45.4   1.6
Lytton (River Oaks) 4/17/21 0200 40.2   2.0 96   0 39.2   1.9 0.5 SSE | 158 1.4   0.4 0.00 0.00 39.9   1.8 42.0   1.8
Jimtown-North (Piccolo-R15) 4/17/21 0200 39.5   0.6 75   4 32.3   0.7 0.2 NNE | 15 1.1   0.0 0.00 0.00 39.2   1.0 40.8   0.1
Jimtown-NE (Red Fan) 4/17/21 0200 42.5   1.8 94   4 40.9   2.8 0.2 NE | 45 1.2   0.3 0.00 0.00 42.3   1.9 43.6   1.3
HWY 128/Chalk Hill Rd (Landslide) 4/17/21 0200 40.8   2.1 96   1 39.7   2.4 0.0 N | 0 0.0   1.5 0.00 0.00 40.5   2.0 42.6   2.2
Lower Dry Creek Valley 4/17/21 0200 42.2   2.1 94   6 40.7   3.9 1.4 NNW | 328 2.1   0.0 0.00 0.00 42.1   2.5 44.9   3.5
Max     51.9 98 43.2 14.1 - 18.6 0.00 0.00 51.4 54.5
Avg     44.1 85 39.4 1.9 - 3.2 0.00 - - -
Min     39.5 55 32.3 0.0 - 0.0 0.00 0.00 39.2 40.8

Central Sonoma County Latest

27 Stations

15 Minute Data | America/Los_Angeles
as of 4/17/21 2:10 AM PDT
Station Date Time Temp (°F) RH (%) Dew Pt (°F) Wind Spd (mph) Wind Dir (°) Wind Gust (mph) Latest Rain (In) Daily Rain (In) Daily Min Temp (°F) Daily Max Temp (°F)
Healdsburg-South (Sodini) 4/17/21 0200 40.6   1.4 96   1 39.7   1.6 0.0 N | 0 0.0   0.0 0.00 0.00 40.2   1.4 41.4   0.8
Windsor-NW (Ranch 8) 4/17/21 0200 44.0   1.3 87   0 40.3   1.3 0.0 N | 0 0.0   0.0 0.00 0.00 43.6   1.4 44.8   1.6
Windsor-East (Ranch 16) 4/17/21 0200 40.2   1.6 95   1 39.0   1.9 0.2 ESE | 118 1.4   1.4 0.00 0.00 39.8   1.5 41.5   1.1
Mark West-North (Ranch 14) 4/17/21 0200 41.5   1.1 93   1 39.6   0.9 0.0 N | 0 0.0   0.0 0.00 0.00 40.8   0.7 45.5   1.9
Windsor-SE (Silk Rd) 4/17/21 0200 40.3   2.0 97   0 39.6   2.1 0.0 N | 0 0.0   0.0 0.00 0.00 39.8   1.7 40.9   1.4
Fulton-NW (Ranch 5) 4/17/21 0200 41.5   1.4 97   1 40.7   1.5 0.1 NNE | 18 0.7   0.7 0.00 0.00 41.2   1.3 43.2   0.9
Windsor-South (Laughlin Rd) 4/17/21 0200 42.8   1.9 - - - - - 0.00 0.00 42.4   1.8 44.5   1.8
Fulton-SE (Barnes Rd) 4/17/21 0200 45.7   4.5 92   2 43.5   3.9 1.8 ESE | 108 3.2   2.3 0.00 0.00 44.6   3.9 46.6   3.2
Fulton-SW (Ranch 21) 4/17/21 0200 42.6   2.1 96   0 41.4   2.2 0.4 NE | 52 1.6   0.1 0.00 0.00 42.1   1.9 43.8   1.7
Santa Rosa-NW (Goldfields) 4/17/21 0200 41.5   2.4 95   1 40.2   2.7 0.5 NNE | 32 1.4   0.1 0.00 0.00 41.0   2.0 43.7   2.1
NW Santa Rosa (Piner Road) 4/17/21 0200 40.2   1.8 97   0 39.4   1.9 0.0 N | 0 0.0   0.6 0.00 0.00 40.0   2.0 42.2   2.6
River Rd South (Denner Ranch) 4/17/21 0200 39.3   0.8 100   2 39.2   1.4 2.1 N | 353 2.8   1.5 0.00 0.00 38.9   1.4 40.6   1.0
West Santa Rosa (Hawk's Roost) 4/17/21 0200 41.0   2.0 98   0 40.4   2.0 0.1 NNE | 23 1.0   1.0 0.00 0.00 40.9   2.1 42.6   2.3
Guerneville Rd (Prokopakis) 4/17/21 0200 39.3   1.7 98   0 38.9   1.8 - - - 0.00 0.00 39.0   1.8 40.2   2.0
Guerneville Rd West (Balletto) 4/17/21 0200 40.1   1.0 95   0 38.7   1.1 0.0 SSE | 155 0.6   0.3 0.00 0.00 39.8   1.1 41.5   2.1
Guerneville Rd East (Rich Ranch) 4/17/21 0200 42.7   4.2 97   2 41.9   4.6 - - - - - 42.6   4.5 43.6   2.0
Occidental Rd (Sebastopol) 4/17/21 0200 39.9   2.2 100   0 39.9   2.2 0.2 E | 88 1.1   0.2 0.00 0.00 39.6   2.2 41.2   0.5
Lower Westside Rd (Ranch 12) 4/17/21 0200 40.7   2.4 95   3 39.4   3.2 0.0 ENE | 59 0.7   0.0 0.00 0.00 40.5   2.4 41.5   2.7
Guerneville (Laughlin Rd) 4/17/21 0200 40.2   3.2 96   0 39.1   3.1 0.2 NW | 324 1.0   1.0 0.00 0.00 39.5   2.8 40.5   2.5
Korbel (Winery) 4/17/21 0200 43.3   3.3 97   1 42.6   3.4 0.1 SSE | 168 1.1   0.5 0.00 0.00 42.5   2.5 43.5   2.5
Forestville (Shone Farms) 4/17/21 0200 41.4   1.8 95   1 40.0   2.1 1.4 NNW | 343 2.1   0.0 0.00 0.00 40.2   1.7 43.0   0.8
Forestville-NE (Ranch 30) 4/17/21 0200 41.0   2.9 96   0 40.0   3.0 0.3 N | 5 1.1   0.5 0.00 0.00 40.4   2.5 41.9   2.5
Graton-West (Dutton Ranch) 4/17/21 0200 40.2   3.5 100   0 40.2   3.5 0.0 N | 0 0.0   1.0 0.00 0.00 40.1   3.9 41.2   2.5
Graton-South (Mill Station Rd) 4/17/21 0200 37.1   1.1 96   1 36.1   1.3 0.7 SE | 128 1.8   0.7 0.00 0.00 36.6   1.3 39.2   0.9
Sexton Valley (Jacqueline's Blk) 4/17/21 0200 37.9   1.7 96   0 37.0   1.7 0.0 N | 0 0.0   0.6 0.00 0.00 37.8   1.8 38.9   1.4
Sebastopol Hills (Burnside Rd) 4/17/21 0200 43.5   2.0 97   0 42.8   1.9 0.7 WSW | 240 2.2   1.1 0.00 0.00 43.0   2.0 44.1   2.1
Seaview/Fort Ross (Hirsch) 4/17/21 0200 52.3   3.3 45   24 31.8   7.5 3.3 NNE | 14 5.5   3.0 0.00 0.00 51.8   5.9 53.2   3.7
Max     52.3 100 43.5 3.3 - 5.5 0.00 0.00 51.8 53.2
Avg     41.5 94 39.7 0.5 - 1.2 0.00 - - -
Min     37.1 45 31.8 0.0 - 0.0 0.00 0.00 36.6 38.9

Latest Observation

15 Stations

15 Minute Data | America/Los_Angeles
as of 4/17/21 2:10 AM PDT
Station Date Time Temp (°F) RH (%) Dew Pt (°F) Wind Spd (mph) Wind Dir (°) Wind Gust (mph) Latest Rain (In) Daily Rain (In) Daily Min Temp (°F) Daily Max Temp (°F)
Lower Bennett Valley 4/17/21 0200 44.5   4.6 97   1 43.8   5.0 3.9 ESE | 116 8.6   5.5 0.00 0.00 44.0   5.5 44.6   3.6
Kenwood (Kunde) 4/17/21 0200 42.5   4.9 99   0 42.3   4.9 0.2 N | 349 3.4   3.4 0.00 0.00 41.5   5.4 43.4   4.9
Sonoma Valley (Bedrock) 4/17/21 0200 39.1   1.4 92   5 36.9   0.1 0.0 N | 0 0.0   0.0 0.00 0.00 38.8   0.9 41.3   1.4
Sonoma-West (Arnold) 4/17/21 0200 39.1   3.3 94   5 37.6   4.7 0.9 WNW | 301 1.8   0.4 0.00 0.00 38.3   3.2 40.6   3.1
Schellville 4/17/21 0200 46.5   3.5 94   0 44.9   3.4 0.7 W | 263 5.1   0.0 0.00 0.00 46.4   3.5 47.0   3.2
Sonoma Valley HS 4/17/21 0200 42.7   2.4 94   8 41.2   4.8 0.5 ENE | 70 2.2   0.9 0.00 0.00 42.5   2.5 44.4   2.4
Sonoma-SE (Napoli) 4/17/21 0200 43.8   5.5 92   2 41.7   5.9 0.2 ESE | 102 2.1   2.1 0.00 0.00 43.2   6.2 45.3   6.5
Carneros (Ranch 71) 4/17/21 0200 45.3   2.2 96   5 44.2   3.5 6.2 W | 272 10.7   2.7 0.00 0.00 45.0   2.3 45.8   2.6
Carneros Upper (Ranch 81) 4/17/21 0200 45.6   2.5 94   6 43.8   4.1 11.8 W | 259 14.9   1.3 - - 45.5   3.1 46.2   2.8
Carneros Lower (Ranch 81) 4/17/21 0200 45.4   2.8 93   3 43.5   3.6 0.6 WSW | 257 3.1   1.8 0.00 0.00 45.3   3.1 46.1   2.5
Rohnert Park-West (Stony Point) 4/17/21 0200 42.6   0.8 98   1 42.0   0.5 2.4 ESE | 112 3.4   1.8 0.00 0.00 41.7   5.8 43.8   1.3
Penngrove (Asellus) 4/17/21 0200 46.5   0.2 97   6 45.8   1.9 0.1 NNE | 30 1.1   2.8 0.00 0.00 44.6   1.6 46.8   0.4
Roger's Creek (Ranch 50) 4/17/21 0200 45.0   1.3 99   1 44.8   1.7 9.6 W | 265 14.2   4.5 0.00 0.00 44.8   1.2 45.2   1.2
Petaluma (Ranch 10) 4/17/21 0200 47.3   0.1 91   6 44.7   1.7 3.6 NW | 308 6.6   2.0 0.00 0.00 45.6   1.6 47.7   0.3
Lakeville (Ranch 47) 4/17/21 0200 42.9   1.8 96   4 41.8   0.6 1.3 NNE | 15 2.8   6.6 0.00 0.00 42.3   0.3 44.2   1.2
Max     47.3 99 45.8 11.8 - 14.9 0.00 0.00 46.4 47.7
Avg     43.9 95 42.6 2.8 - 5.3 0.00 - - -
Min     39.1 91 36.9 0.0 - 0.0 0.00 0.00 38.3 40.6

Latest Observations

Map

Hourly Data